sensor_id;sensor_type;location;lat;lon;timestamp;P1;durP1;ratioP1;P2;durP2;ratioP2
43823;SDS011;29470;53.550;9.926;2023-03-02T00:03:29;35.08;;;15.15;;
43823;SDS011;29470;53.550;9.926;2023-03-02T00:08:33;37.67;;;13.45;;
43823;SDS011;29470;53.550;9.926;2023-03-02T00:13:39;34.67;;;13.60;;
43823;SDS011;29470;53.550;9.926;2023-03-02T00:18:41;28.88;;;12.20;;
43823;SDS011;29470;53.550;9.926;2023-03-02T00:23:44;34.92;;;12.57;;
43823;SDS011;29470;53.550;9.926;2023-03-02T00:28:48;28.83;;;12.10;;
43823;SDS011;29470;53.550;9.926;2023-03-02T00:33:51;31.80;;;12.77;;
43823;SDS011;29470;53.550;9.926;2023-03-02T00:38:55;27.88;;;13.05;;
43823;SDS011;29470;53.550;9.926;2023-03-02T00:43:59;27.58;;;11.40;;
43823;SDS011;29470;53.550;9.926;2023-03-02T00:49:02;31.50;;;12.15;;
43823;SDS011;29470;53.550;9.926;2023-03-02T00:54:05;25.48;;;11.18;;
43823;SDS011;29470;53.550;9.926;2023-03-02T00:59:11;25.55;;;10.65;;
43823;SDS011;29470;53.550;9.926;2023-03-02T01:04:35;29.73;;;11.02;;
43823;SDS011;29470;53.550;9.926;2023-03-02T01:09:40;23.35;;;9.80;;
43823;SDS011;29470;53.550;9.926;2023-03-02T01:14:46;23.65;;;10.52;;
43823;SDS011;29470;53.550;9.926;2023-03-02T01:19:52;21.60;;;8.35;;
43823;SDS011;29470;53.550;9.926;2023-03-02T01:24:56;19.88;;;8.85;;
43823;SDS011;29470;53.550;9.926;2023-03-02T01:30:00;20.50;;;8.70;;
43823;SDS011;29470;53.550;9.926;2023-03-02T01:35:05;18.33;;;7.95;;
43823;SDS011;29470;53.550;9.926;2023-03-02T01:40:09;17.40;;;7.20;;
43823;SDS011;29470;53.550;9.926;2023-03-02T01:51:00;16.67;;;8.07;;
43823;SDS011;29470;53.550;9.926;2023-03-02T01:56:06;21.85;;;8.52;;
43823;SDS011;29470;53.550;9.926;2023-03-02T02:01:11;22.13;;;8.13;;
43823;SDS011;29470;53.550;9.926;2023-03-02T02:06:18;18.05;;;7.75;;
43823;SDS011;29470;53.550;9.926;2023-03-02T02:16:30;17.75;;;7.38;;
43823;SDS011;29470;53.550;9.926;2023-03-02T02:21:35;15.23;;;7.80;;
43823;SDS011;29470;53.550;9.926;2023-03-02T02:26:40;15.15;;;7.03;;
43823;SDS011;29470;53.550;9.926;2023-03-02T02:31:47;16.90;;;7.13;;
43823;SDS011;29470;53.550;9.926;2023-03-02T02:36:57;16.15;;;7.35;;
43823;SDS011;29470;53.550;9.926;2023-03-02T02:42:09;18.23;;;7.47;;
43823;SDS011;29470;53.550;9.926;2023-03-02T02:47:16;17.30;;;7.57;;
43823;SDS011;29470;53.550;9.926;2023-03-02T02:52:22;16.63;;;7.43;;
43823;SDS011;29470;53.550;9.926;2023-03-02T02:57:27;16.83;;;6.95;;
43823;SDS011;29470;53.550;9.926;2023-03-02T03:02:33;17.85;;;7.43;;
43823;SDS011;29470;53.550;9.926;2023-03-02T03:07:43;20.00;;;8.80;;
43823;SDS011;29470;53.550;9.926;2023-03-02T03:12:50;16.35;;;7.72;;
43823;SDS011;29470;53.550;9.926;2023-03-02T03:17:55;19.27;;;8.65;;
43823;SDS011;29470;53.550;9.926;2023-03-02T03:23:00;20.42;;;8.93;;
43823;SDS011;29470;53.550;9.926;2023-03-02T03:28:06;21.17;;;8.82;;
43823;SDS011;29470;53.550;9.926;2023-03-02T03:33:09;19.50;;;8.52;;
43823;SDS011;29470;53.550;9.926;2023-03-02T03:38:13;18.92;;;8.10;;
43823;SDS011;29470;53.550;9.926;2023-03-02T03:43:18;17.67;;;8.27;;
43823;SDS011;29470;53.550;9.926;2023-03-02T03:48:25;18.33;;;8.52;;
43823;SDS011;29470;53.550;9.926;2023-03-02T03:53:28;21.50;;;8.85;;
43823;SDS011;29470;53.550;9.926;2023-03-02T03:58:32;19.38;;;8.63;;
43823;SDS011;29470;53.550;9.926;2023-03-02T04:03:37;17.88;;;7.97;;
43823;SDS011;29470;53.550;9.926;2023-03-02T04:08:40;22.38;;;8.55;;
43823;SDS011;29470;53.550;9.926;2023-03-02T04:13:44;22.50;;;9.10;;
43823;SDS011;29470;53.550;9.926;2023-03-02T04:18:47;26.60;;;9.93;;
43823;SDS011;29470;53.550;9.926;2023-03-02T04:23:50;41.50;;;9.23;;
43823;SDS011;29470;53.550;9.926;2023-03-02T04:28:55;22.77;;;9.43;;
43823;SDS011;29470;53.550;9.926;2023-03-02T04:33:59;23.50;;;9.05;;
43823;SDS011;29470;53.550;9.926;2023-03-02T04:39:05;20.13;;;9.07;;
43823;SDS011;29470;53.550;9.926;2023-03-02T04:44:10;22.80;;;9.77;;
43823;SDS011;29470;53.550;9.926;2023-03-02T04:49:15;20.05;;;8.18;;
43823;SDS011;29470;53.550;9.926;2023-03-02T04:54:20;20.88;;;8.48;;
43823;SDS011;29470;53.550;9.926;2023-03-02T04:59:27;23.55;;;9.13;;
43823;SDS011;29470;53.550;9.926;2023-03-02T05:04:30;20.63;;;9.13;;
43823;SDS011;29470;53.550;9.926;2023-03-02T05:09:33;21.75;;;8.85;;
43823;SDS011;29470;53.550;9.926;2023-03-02T05:14:37;19.88;;;8.80;;
43823;SDS011;29470;53.550;9.926;2023-03-02T05:19:40;17.80;;;7.93;;
43823;SDS011;29470;53.550;9.926;2023-03-02T05:24:43;21.52;;;9.20;;
43823;SDS011;29470;53.550;9.926;2023-03-02T05:29:47;20.23;;;8.73;;
43823;SDS011;29470;53.550;9.926;2023-03-02T05:34:50;20.98;;;8.70;;
43823;SDS011;29470;53.550;9.926;2023-03-02T05:39:53;20.52;;;9.02;;
43823;SDS011;29470;53.550;9.926;2023-03-02T05:44:57;20.50;;;9.35;;
43823;SDS011;29470;53.550;9.926;2023-03-02T05:50:00;21.92;;;9.90;;
43823;SDS011;29470;53.550;9.926;2023-03-02T05:55:03;22.85;;;9.77;;
43823;SDS011;29470;53.550;9.926;2023-03-02T06:00:08;27.50;;;10.70;;
43823;SDS011;29470;53.550;9.926;2023-03-02T06:05:17;24.73;;;10.68;;
43823;SDS011;29470;53.550;9.926;2023-03-02T06:10:22;23.92;;;10.10;;
43823;SDS011;29470;53.550;9.926;2023-03-02T06:15:26;25.83;;;10.35;;
43823;SDS011;29470;53.550;9.926;2023-03-02T06:20:30;23.90;;;10.70;;
43823;SDS011;29470;53.550;9.926;2023-03-02T06:25:33;26.73;;;10.88;;
43823;SDS011;29470;53.550;9.926;2023-03-02T06:30:38;22.80;;;9.93;;
43823;SDS011;29470;53.550;9.926;2023-03-02T06:35:41;25.45;;;10.85;;
43823;SDS011;29470;53.550;9.926;2023-03-02T06:40:44;27.52;;;10.15;;
43823;SDS011;29470;53.550;9.926;2023-03-02T06:45:49;23.85;;;10.23;;
43823;SDS011;29470;53.550;9.926;2023-03-02T06:50:52;24.88;;;10.23;;
43823;SDS011;29470;53.550;9.926;2023-03-02T06:55:55;24.73;;;10.60;;
43823;SDS011;29470;53.550;9.926;2023-03-02T07:00:59;24.23;;;11.13;;
43823;SDS011;29470;53.550;9.926;2023-03-02T07:06:02;25.77;;;10.93;;
43823;SDS011;29470;53.550;9.926;2023-03-02T07:11:06;26.27;;;10.15;;
43823;SDS011;29470;53.550;9.926;2023-03-02T07:16:10;27.77;;;10.27;;
43823;SDS011;29470;53.550;9.926;2023-03-02T07:21:14;22.60;;;9.10;;
43823;SDS011;29470;53.550;9.926;2023-03-02T07:26:17;27.23;;;10.90;;
43823;SDS011;29470;53.550;9.926;2023-03-02T07:31:22;26.20;;;11.23;;
43823;SDS011;29470;53.550;9.926;2023-03-02T07:36:25;26.17;;;10.27;;
43823;SDS011;29470;53.550;9.926;2023-03-02T07:41:27;24.83;;;10.35;;
43823;SDS011;29470;53.550;9.926;2023-03-02T07:46:32;28.27;;;10.27;;
43823;SDS011;29470;53.550;9.926;2023-03-02T07:51:35;28.38;;;10.75;;
43823;SDS011;29470;53.550;9.926;2023-03-02T07:56:39;21.88;;;9.77;;
43823;SDS011;29470;53.550;9.926;2023-03-02T08:01:43;22.23;;;9.60;;
43823;SDS011;29470;53.550;9.926;2023-03-02T08:06:46;23.98;;;10.00;;
43823;SDS011;29470;53.550;9.926;2023-03-02T08:11:49;25.60;;;10.80;;
43823;SDS011;29470;53.550;9.926;2023-03-02T08:16:53;23.83;;;10.82;;
43823;SDS011;29470;53.550;9.926;2023-03-02T08:21:56;25.50;;;9.57;;
43823;SDS011;29470;53.550;9.926;2023-03-02T08:26:59;21.40;;;9.95;;
43823;SDS011;29470;53.550;9.926;2023-03-02T08:32:04;18.17;;;9.05;;
43823;SDS011;29470;53.550;9.926;2023-03-02T08:37:07;23.55;;;10.55;;
43823;SDS011;29470;53.550;9.926;2023-03-02T08:42:10;24.02;;;9.98;;
43823;SDS011;29470;53.550;9.926;2023-03-02T08:47:14;22.42;;;10.13;;
43823;SDS011;29470;53.550;9.926;2023-03-02T08:52:17;24.25;;;10.43;;
43823;SDS011;29470;53.550;9.926;2023-03-02T08:57:20;25.65;;;10.48;;
43823;SDS011;29470;53.550;9.926;2023-03-02T09:02:24;27.42;;;11.15;;
43823;SDS011;29470;53.550;9.926;2023-03-02T09:07:27;35.30;;;12.23;;
43823;SDS011;29470;53.550;9.926;2023-03-02T09:12:30;28.65;;;11.80;;
43823;SDS011;29470;53.550;9.926;2023-03-02T09:17:34;28.05;;;12.30;;
43823;SDS011;29470;53.550;9.926;2023-03-02T09:22:37;27.52;;;12.07;;
43823;SDS011;29470;53.550;9.926;2023-03-02T09:27:40;26.98;;;12.02;;
43823;SDS011;29470;53.550;9.926;2023-03-02T09:32:45;30.23;;;11.95;;
43823;SDS011;29470;53.550;9.926;2023-03-02T09:37:49;29.73;;;13.00;;
43823;SDS011;29470;53.550;9.926;2023-03-02T09:43:11;29.15;;;13.40;;
43823;SDS011;29470;53.550;9.926;2023-03-02T09:48:36;29.00;;;12.88;;
43823;SDS011;29470;53.550;9.926;2023-03-02T09:53:43;28.58;;;11.77;;
43823;SDS011;29470;53.550;9.926;2023-03-02T09:58:51;28.70;;;11.75;;
43823;SDS011;29470;53.550;9.926;2023-03-02T10:04:00;26.70;;;12.02;;
43823;SDS011;29470;53.550;9.926;2023-03-02T10:09:14;26.20;;;11.52;;
43823;SDS011;29470;53.550;9.926;2023-03-02T10:14:19;24.63;;;11.05;;
43823;SDS011;29470;53.550;9.926;2023-03-02T10:19:28;24.50;;;11.35;;
43823;SDS011;29470;53.550;9.926;2023-03-02T10:24:35;24.27;;;11.65;;
43823;SDS011;29470;53.550;9.926;2023-03-02T10:29:43;27.15;;;11.25;;
43823;SDS011;29470;53.550;9.926;2023-03-02T10:34:52;50.60;;;21.98;;
43823;SDS011;29470;53.550;9.926;2023-03-02T10:39:56;27.15;;;11.95;;
43823;SDS011;29470;53.550;9.926;2023-03-02T10:45:01;25.52;;;12.60;;
43823;SDS011;29470;53.550;9.926;2023-03-02T10:50:20;30.88;;;13.70;;
43823;SDS011;29470;53.550;9.926;2023-03-02T10:55:25;25.38;;;11.60;;
43823;SDS011;29470;53.550;9.926;2023-03-02T11:00:29;25.05;;;10.70;;
43823;SDS011;29470;53.550;9.926;2023-03-02T11:05:35;23.95;;;11.05;;
43823;SDS011;29470;53.550;9.926;2023-03-02T11:10:40;26.83;;;11.65;;
43823;SDS011;29470;53.550;9.926;2023-03-02T11:15:53;24.17;;;11.07;;
43823;SDS011;29470;53.550;9.926;2023-03-02T11:21:00;23.35;;;10.93;;
43823;SDS011;29470;53.550;9.926;2023-03-02T11:26:08;23.42;;;11.02;;
43823;SDS011;29470;53.550;9.926;2023-03-02T11:31:21;22.08;;;11.20;;
43823;SDS011;29470;53.550;9.926;2023-03-02T11:36:34;22.15;;;10.13;;
43823;SDS011;29470;53.550;9.926;2023-03-02T11:41:42;20.00;;;9.25;;
43823;SDS011;29470;53.550;9.926;2023-03-02T11:46:46;22.10;;;9.55;;
43823;SDS011;29470;53.550;9.926;2023-03-02T11:51:57;21.20;;;9.18;;
43823;SDS011;29470;53.550;9.926;2023-03-02T11:57:02;19.08;;;9.45;;
43823;SDS011;29470;53.550;9.926;2023-03-02T12:02:08;19.42;;;8.93;;
43823;SDS011;29470;53.550;9.926;2023-03-02T12:07:17;19.85;;;8.43;;
43823;SDS011;29470;53.550;9.926;2023-03-02T12:12:32;17.17;;;8.52;;
43823;SDS011;29470;53.550;9.926;2023-03-02T12:17:42;17.67;;;8.90;;
43823;SDS011;29470;53.550;9.926;2023-03-02T12:22:46;19.92;;;8.73;;
43823;SDS011;29470;53.550;9.926;2023-03-02T12:27:49;18.52;;;7.70;;
43823;SDS011;29470;53.550;9.926;2023-03-02T12:32:58;18.67;;;8.20;;
43823;SDS011;29470;53.550;9.926;2023-03-02T12:38:16;16.77;;;7.80;;
43823;SDS011;29470;53.550;9.926;2023-03-02T12:43:29;19.55;;;8.15;;
43823;SDS011;29470;53.550;9.926;2023-03-02T12:48:37;17.20;;;7.90;;
43823;SDS011;29470;53.550;9.926;2023-03-02T12:53:45;15.88;;;7.68;;
43823;SDS011;29470;53.550;9.926;2023-03-02T12:58:49;19.23;;;7.90;;
43823;SDS011;29470;53.550;9.926;2023-03-02T13:03:53;14.52;;;6.47;;
43823;SDS011;29470;53.550;9.926;2023-03-02T13:08:58;15.80;;;7.18;;
43823;SDS011;29470;53.550;9.926;2023-03-02T13:14:01;16.80;;;7.38;;
43823;SDS011;29470;53.550;9.926;2023-03-02T13:19:20;15.55;;;7.15;;
43823;SDS011;29470;53.550;9.926;2023-03-02T13:24:30;18.90;;;7.75;;
43823;SDS011;29470;53.550;9.926;2023-03-02T13:29:36;18.52;;;8.18;;
43823;SDS011;29470;53.550;9.926;2023-03-02T13:34:43;17.08;;;8.00;;
43823;SDS011;29470;53.550;9.926;2023-03-02T13:39:54;19.70;;;8.10;;
43823;SDS011;29470;53.550;9.926;2023-03-02T13:45:07;18.23;;;8.38;;
43823;SDS011;29470;53.550;9.926;2023-03-02T13:50:15;14.65;;;7.05;;
43823;SDS011;29470;53.550;9.926;2023-03-02T13:55:20;15.88;;;7.25;;
43823;SDS011;29470;53.550;9.926;2023-03-02T14:00:25;15.57;;;7.65;;
43823;SDS011;29470;53.550;9.926;2023-03-02T14:05:32;13.90;;;7.30;;
43823;SDS011;29470;53.550;9.926;2023-03-02T14:10:36;13.60;;;7.18;;
43823;SDS011;29470;53.550;9.926;2023-03-02T14:15:39;17.90;;;6.78;;
43823;SDS011;29470;53.550;9.926;2023-03-02T14:20:44;13.65;;;6.82;;
43823;SDS011;29470;53.550;9.926;2023-03-02T14:25:48;15.65;;;7.97;;
43823;SDS011;29470;53.550;9.926;2023-03-02T14:30:53;13.65;;;6.80;;
43823;SDS011;29470;53.550;9.926;2023-03-02T14:35:57;13.32;;;6.80;;
43823;SDS011;29470;53.550;9.926;2023-03-02T14:41:02;15.55;;;5.97;;
43823;SDS011;29470;53.550;9.926;2023-03-02T14:46:05;9.85;;;5.47;;
43823;SDS011;29470;53.550;9.926;2023-03-02T14:51:10;11.75;;;6.13;;
43823;SDS011;29470;53.550;9.926;2023-03-02T14:56:21;11.48;;;5.70;;
43823;SDS011;29470;53.550;9.926;2023-03-02T15:01:24;10.55;;;5.63;;
43823;SDS011;29470;53.550;9.926;2023-03-02T15:06:28;10.90;;;5.90;;
43823;SDS011;29470;53.550;9.926;2023-03-02T15:11:34;10.27;;;6.10;;
43823;SDS011;29470;53.550;9.926;2023-03-02T15:16:37;12.85;;;6.53;;
43823;SDS011;29470;53.550;9.926;2023-03-02T15:21:40;11.60;;;6.25;;
43823;SDS011;29470;53.550;9.926;2023-03-02T15:26:46;11.38;;;6.00;;
43823;SDS011;29470;53.550;9.926;2023-03-02T15:31:50;14.43;;;6.65;;
43823;SDS011;29470;53.550;9.926;2023-03-02T15:36:53;13.30;;;6.85;;
43823;SDS011;29470;53.550;9.926;2023-03-02T15:41:57;14.88;;;7.05;;
43823;SDS011;29470;53.550;9.926;2023-03-02T15:47:00;14.05;;;7.35;;
43823;SDS011;29470;53.550;9.926;2023-03-02T15:52:03;16.38;;;6.95;;
43823;SDS011;29470;53.550;9.926;2023-03-02T15:57:08;13.00;;;6.15;;
43823;SDS011;29470;53.550;9.926;2023-03-02T16:02:11;16.85;;;7.65;;
43823;SDS011;29470;53.550;9.926;2023-03-02T16:07:15;13.05;;;5.95;;
43823;SDS011;29470;53.550;9.926;2023-03-02T16:12:19;15.00;;;6.63;;
43823;SDS011;29470;53.550;9.926;2023-03-02T16:17:23;13.70;;;6.82;;
43823;SDS011;29470;53.550;9.926;2023-03-02T16:22:26;15.18;;;7.50;;
43823;SDS011;29470;53.550;9.926;2023-03-02T16:27:30;15.27;;;7.60;;
43823;SDS011;29470;53.550;9.926;2023-03-02T16:32:33;17.90;;;7.57;;
43823;SDS011;29470;53.550;9.926;2023-03-02T16:37:36;15.75;;;7.28;;
43823;SDS011;29470;53.550;9.926;2023-03-02T16:42:40;20.08;;;8.07;;
43823;SDS011;29470;53.550;9.926;2023-03-02T16:47:43;13.65;;;6.18;;
43823;SDS011;29470;53.550;9.926;2023-03-02T16:52:46;15.40;;;6.85;;
43823;SDS011;29470;53.550;9.926;2023-03-02T16:57:50;15.18;;;7.38;;
43823;SDS011;29470;53.550;9.926;2023-03-02T17:02:53;14.05;;;6.50;;
43823;SDS011;29470;53.550;9.926;2023-03-02T17:07:56;14.60;;;7.28;;
43823;SDS011;29470;53.550;9.926;2023-03-02T17:13:01;17.77;;;7.97;;
43823;SDS011;29470;53.550;9.926;2023-03-02T17:18:05;16.58;;;8.00;;
43823;SDS011;29470;53.550;9.926;2023-03-02T17:23:08;20.60;;;9.13;;
43823;SDS011;29470;53.550;9.926;2023-03-02T17:28:14;19.95;;;8.88;;
43823;SDS011;29470;53.550;9.926;2023-03-02T17:33:17;17.48;;;8.95;;
43823;SDS011;29470;53.550;9.926;2023-03-02T17:38:20;16.73;;;8.00;;
43823;SDS011;29470;53.550;9.926;2023-03-02T17:43:24;22.20;;;9.60;;
43823;SDS011;29470;53.550;9.926;2023-03-02T17:48:27;18.98;;;8.52;;
43823;SDS011;29470;53.550;9.926;2023-03-02T17:53:30;21.67;;;9.68;;
43823;SDS011;29470;53.550;9.926;2023-03-02T17:58:34;18.83;;;8.52;;
43823;SDS011;29470;53.550;9.926;2023-03-02T18:03:45;17.48;;;7.88;;
43823;SDS011;29470;53.550;9.926;2023-03-02T18:08:49;20.10;;;9.88;;
43823;SDS011;29470;53.550;9.926;2023-03-02T18:13:54;21.20;;;9.38;;
43823;SDS011;29470;53.550;9.926;2023-03-02T18:18:57;23.10;;;10.07;;
43823;SDS011;29470;53.550;9.926;2023-03-02T18:24:00;19.77;;;8.82;;
43823;SDS011;29470;53.550;9.926;2023-03-02T18:29:04;20.15;;;9.32;;
43823;SDS011;29470;53.550;9.926;2023-03-02T18:34:08;22.40;;;10.07;;
43823;SDS011;29470;53.550;9.926;2023-03-02T18:39:10;22.75;;;9.70;;
43823;SDS011;29470;53.550;9.926;2023-03-02T18:44:15;19.38;;;9.23;;
43823;SDS011;29470;53.550;9.926;2023-03-02T18:49:18;23.75;;;10.27;;
43823;SDS011;29470;53.550;9.926;2023-03-02T18:54:21;21.88;;;10.02;;
43823;SDS011;29470;53.550;9.926;2023-03-02T18:59:26;25.83;;;10.95;;
43823;SDS011;29470;53.550;9.926;2023-03-02T19:04:29;22.45;;;10.75;;
43823;SDS011;29470;53.550;9.926;2023-03-02T19:09:32;23.58;;;10.50;;
43823;SDS011;29470;53.550;9.926;2023-03-02T19:14:36;25.48;;;11.23;;
43823;SDS011;29470;53.550;9.926;2023-03-02T19:19:42;28.67;;;12.63;;
43823;SDS011;29470;53.550;9.926;2023-03-02T19:24:45;24.10;;;12.10;;
43823;SDS011;29470;53.550;9.926;2023-03-02T19:29:49;22.83;;;11.10;;
43823;SDS011;29470;53.550;9.926;2023-03-02T19:34:52;25.05;;;12.45;;
43823;SDS011;29470;53.550;9.926;2023-03-02T19:39:55;36.88;;;14.88;;
43823;SDS011;29470;53.550;9.926;2023-03-02T19:44:59;32.33;;;13.82;;
43823;SDS011;29470;53.550;9.926;2023-03-02T19:50:03;29.13;;;12.50;;
43823;SDS011;29470;53.550;9.926;2023-03-02T19:55:08;30.25;;;13.73;;
43823;SDS011;29470;53.550;9.926;2023-03-02T20:00:14;32.63;;;13.98;;
43823;SDS011;29470;53.550;9.926;2023-03-02T20:05:17;30.45;;;13.25;;
43823;SDS011;29470;53.550;9.926;2023-03-02T20:10:25;31.27;;;13.07;;
43823;SDS011;29470;53.550;9.926;2023-03-02T20:15:32;29.45;;;13.40;;
43823;SDS011;29470;53.550;9.926;2023-03-02T20:20:38;31.75;;;14.10;;
43823;SDS011;29470;53.550;9.926;2023-03-02T20:25:41;29.42;;;13.55;;
43823;SDS011;29470;53.550;9.926;2023-03-02T20:30:50;31.15;;;14.18;;
43823;SDS011;29470;53.550;9.926;2023-03-02T20:35:55;31.38;;;13.90;;
43823;SDS011;29470;53.550;9.926;2023-03-02T20:40:59;33.00;;;14.23;;
43823;SDS011;29470;53.550;9.926;2023-03-02T20:46:04;32.28;;;13.93;;
43823;SDS011;29470;53.550;9.926;2023-03-02T20:51:07;34.20;;;15.05;;
43823;SDS011;29470;53.550;9.926;2023-03-02T20:56:10;34.03;;;15.20;;
43823;SDS011;29470;53.550;9.926;2023-03-02T21:01:15;36.88;;;15.73;;
43823;SDS011;29470;53.550;9.926;2023-03-02T21:06:21;39.22;;;15.07;;
43823;SDS011;29470;53.550;9.926;2023-03-02T21:11:24;36.08;;;15.40;;
43823;SDS011;29470;53.550;9.926;2023-03-02T21:16:29;36.22;;;15.07;;
43823;SDS011;29470;53.550;9.926;2023-03-02T21:21:36;37.28;;;15.43;;
43823;SDS011;29470;53.550;9.926;2023-03-02T21:26:42;40.00;;;15.82;;
43823;SDS011;29470;53.550;9.926;2023-03-02T21:31:47;40.92;;;16.80;;
43823;SDS011;29470;53.550;9.926;2023-03-02T21:36:51;44.15;;;16.67;;
43823;SDS011;29470;53.550;9.926;2023-03-02T21:41:54;37.17;;;16.25;;
43823;SDS011;29470;53.550;9.926;2023-03-02T21:46:58;38.85;;;16.92;;
43823;SDS011;29470;53.550;9.926;2023-03-02T21:52:01;41.20;;;16.85;;
43823;SDS011;29470;53.550;9.926;2023-03-02T21:57:04;39.67;;;16.80;;
43823;SDS011;29470;53.550;9.926;2023-03-02T22:02:09;45.65;;;16.88;;
43823;SDS011;29470;53.550;9.926;2023-03-02T22:07:12;42.92;;;17.45;;
43823;SDS011;29470;53.550;9.926;2023-03-02T22:12:15;41.80;;;17.00;;
43823;SDS011;29470;53.550;9.926;2023-03-02T22:17:20;46.65;;;18.17;;
43823;SDS011;29470;53.550;9.926;2023-03-02T22:22:26;41.80;;;18.20;;
43823;SDS011;29470;53.550;9.926;2023-03-02T22:27:30;42.17;;;16.70;;
43823;SDS011;29470;53.550;9.926;2023-03-02T22:32:36;47.53;;;18.42;;
43823;SDS011;29470;53.550;9.926;2023-03-02T22:37:40;46.78;;;17.30;;
43823;SDS011;29470;53.550;9.926;2023-03-02T22:42:42;47.20;;;19.50;;
43823;SDS011;29470;53.550;9.926;2023-03-02T22:47:47;52.75;;;19.20;;
43823;SDS011;29470;53.550;9.926;2023-03-02T22:52:51;50.65;;;19.25;;
43823;SDS011;29470;53.550;9.926;2023-03-02T22:57:55;47.63;;;18.60;;
43823;SDS011;29470;53.550;9.926;2023-03-02T23:02:59;52.95;;;19.95;;
43823;SDS011;29470;53.550;9.926;2023-03-02T23:08:16;47.90;;;19.23;;
43823;SDS011;29470;53.550;9.926;2023-03-02T23:13:22;54.67;;;20.85;;
43823;SDS011;29470;53.550;9.926;2023-03-02T23:18:29;52.85;;;20.67;;
43823;SDS011;29470;53.550;9.926;2023-03-02T23:23:34;61.08;;;20.95;;
43823;SDS011;29470;53.550;9.926;2023-03-02T23:28:37;63.72;;;21.90;;
43823;SDS011;29470;53.550;9.926;2023-03-02T23:33:41;57.30;;;21.30;;
43823;SDS011;29470;53.550;9.926;2023-03-02T23:38:44;58.63;;;20.88;;
43823;SDS011;29470;53.550;9.926;2023-03-02T23:43:46;50.22;;;21.23;;
43823;SDS011;29470;53.550;9.926;2023-03-02T23:48:51;51.28;;;19.77;;
43823;SDS011;29470;53.550;9.926;2023-03-02T23:53:56;53.25;;;20.70;;
43823;SDS011;29470;53.550;9.926;2023-03-02T23:58:58;54.95;;;20.50;;
